Latest Weather Observations for Derby

IDW60801

Issued at 11:03 am WST Tuesday 22 August 2017 (issued every 30 minutes, with the page automatically refreshed every 10 minutes)

About weather observations | Map of weather stations | Latest weather observations for WA | Other Formats
Station Details ID: 003032 Name: DERBY AERO Lat: -17.37 Lon: 123.66 Height: 6.2 m
Data from the previous 72 hours. | See also: Recent months at Derby
Date/Time
WST
Temp
°C
App
Temp
°C
Dew
Point
°C
Rel
Hum
%
Delta-T
°C
Wind Press
QNH
hPa
Press
MSL
hPa
Rain since
9am
mm
Dir  Spd
km/h
Gust
km/h
Spd
kts
Gust
kts
22/11:00am 35.2 29.6 5.6 16 16.0 ESE 24 35 13 19 1014.0 1014.0 0.0
22/10:30am 34.4 30.4 6.7 18 15.2 E 17 26 9 14 1014.4 1014.4 0.0
22/10:00am 32.5 29.4 7.4 21 13.8 E 13 20 7 11 1014.8 1014.8 0.0
22/09:30am 31.8 28.9 8.1 23 13.1 E 13 19 7 10 1014.9 1014.9 0.0
22/09:00am 29.3 26.6 7.2 25 11.9 ESE 11 17 6 9 1014.8 1014.8 0.0
22/08:30am 27.2 24.3 6.6 27 10.8 SE 11 15 6 8 1014.8 1014.8 0.0
22/08:00am 25.3 21.8 5.5 28 10.1 SE 13 17 7 9 1014.7 1014.7 0.0
22/07:30am 22.7 18.8 5.2 32 8.7 SSE 15 17 8 9 1014.6 1014.6 0.0
22/07:00am 20.7 16.7 4.7 35 7.8 SSE 15 19 8 10 1014.3 1014.3 0.0
22/06:30am 19.4 16.3 5.5 40 6.8 SSE 11 13 6 7 1014.2 1014.2 0.0
22/06:00am 18.2 15.2 6.1 45 6.0 SSE 11 13 6 7 1014.0 1014.0 0.0
22/05:30am 18.7 16.1 6.2 44 6.2 SSE 9 11 5 6 1013.6 1013.6 0.0
22/05:00am 18.9 16.7 6.4 44 6.2 ESE 7 11 4 6 1013.2 1013.2 0.0
22/04:30am 19.0 16.3 5.5 41 6.6 SSE 9 11 5 6 1013.0 1013.0 0.0
22/04:00am 20.3 18.3 7.0 42 6.8 SE 7 7 4 4 1012.9 1012.9 0.0
22/03:30am 22.3 19.1 5.3 33 8.5 E 11 13 6 7 1012.9 1012.9 0.0
22/03:00am 21.3 18.6 7.2 40 7.2 ESE 11 15 6 8 1012.4 1012.4 0.0
22/02:30am 22.1 20.0 8.2 41 7.3 ENE 9 11 5 6 1012.3 1012.3 0.0
22/02:00am 21.1 19.8 10.0 49 6.0 NE 7 9 4 5 1012.3 1012.3 0.0
22/01:30am 20.6 19.3 9.8 50 5.8 NNE 7 11 4 6 1012.2 1012.2 0.0
22/01:00am 20.6 18.9 9.8 50 5.8 N 9 11 5 6 1012.3 1012.3 0.0
22/12:30am 20.8 19.6 9.7 49 5.9 N 6 7 3 4 1012.1 1012.1 0.0
22/12:00am 20.9 19.7 9.5 48 6.1 NW 6 6 3 3 1012.0 1012.0 0.0
 
Date/Time
WST
Temp
°C
App
Temp
°C
Dew
Point
°C
Rel
Hum
%
Delta-T
°C
Wind Press
QNH
hPa
Press
MSL
hPa
Rain since
9am
mm
Dir  Spd
km/h
Gust
km/h
Spd
kts
Gust
kts
21/11:30pm 21.8 21.8 9.7 46 6.5 CALM 0 0 0 0 1012.2 1012.2 0.0
21/11:00pm 22.2 21.7 8.0 40 7.4 CALM 0 0 0 0 1012.3 1012.3 0.0
21/10:30pm 23.3 22.6 8.6 39 7.8 ESE 2 7 1 4 1012.4 1012.4 0.0
21/10:00pm 25.5 23.2 8.9 35 9.0 S 11 13 6 7 1012.4 1012.4 0.0
21/09:30pm 25.8 23.4 8.8 34 9.2 SSE 11 13 6 7 1012.1 1012.1 0.0
21/09:00pm 26.5 24.5 8.5 32 9.8 SSE 9 11 5 6 1011.9 1011.9 0.0
21/08:30pm 27.2 25.3 9.1 32 9.9 SSE 9 11 5 6 1011.9 1011.9 0.0
21/08:00pm 27.3 25.4 9.2 32 10.0 SSE 9 11 5 6 1011.7 1011.7 0.0
21/07:30pm 28.0 25.4 9.3 31 10.3 SSE 13 15 7 8 1011.4 1011.4 0.0
21/07:00pm 29.3 27.1 9.4 29 11.1 SSE 11 13 6 7 1011.2 1011.2 0.0
21/06:30pm 30.6 27.9 8.9 26 12.1 SSE 13 15 7 8 1010.9 1010.9 0.0
21/06:00pm 32.2 29.5 9.1 24 13.0 SSE 13 15 7 8 1010.6 1010.6 0.0
21/05:30pm 34.2 30.7 8.8 21 14.4 SSE 17 26 9 14 1010.2 1010.2 0.0
21/05:00pm 35.4 31.8 8.3 19 15.3 SE 17 20 9 11 1010.0 1010.0 0.0
21/04:30pm 36.0 32.3 8.0 18 15.8 SE 17 22 9 12 1010.0 1010.0 0.0
21/04:00pm 36.3 32.3 8.2 18 15.9 SE 19 30 10 16 1009.8 1009.8 0.0
21/03:30pm 36.5 32.3 8.4 18 16.0 ESE 20 30 11 16 1009.8 1009.8 0.0
21/03:00pm 36.5 31.6 8.4 18 16.0 ESE 24 32 13 17 1009.7 1009.7 0.0
21/02:30pm 37.2 32.8 8.9 18 16.3 SE 22 32 12 17 1009.9 1009.9 0.0
21/02:00pm 36.6 31.7 8.4 18 16.0 SE 24 39 13 21 1010.2 1010.2 0.0
21/01:30pm 36.9 32.1 8.7 18 16.1 SE 24 35 13 19 1010.5 1010.5 0.0
21/01:00pm 35.8 31.3 8.6 19 15.5 SE 22 32 12 17 1010.8 1010.8 0.0
21/12:30pm 35.9 32.0 9.4 20 15.2 SE 20 32 11 17 1011.3 1011.3 0.0
21/12:00pm 35.2 31.3 9.6 21 14.7 SE 20 32 11 17 1011.8 1011.8 0.0
21/11:30am 34.7 30.4 9.2 21 14.5 SE 22 33 12 18 1012.4 1012.4 0.0
21/11:00am 33.5 29.5 8.9 22 13.9 ESE 20 41 11 22 1012.9 1012.9 0.0
21/10:30am 32.3 26.8 9.2 24 13.0 SE 28 37 15 20 1013.4 1013.4 0.0
21/10:00am 31.8 27.1 9.3 25 12.7 SE 24 32 13 17 1013.5 1013.5 0.0
21/09:30am 30.2 24.3 9.1 27 11.8 SE 30 39 16 21 1014.0 1014.0 0.0
21/09:00am 29.4 25.1 9.5 29 11.1 SE 22 30 12 16 1014.2 1014.2 0.0
21/08:30am 27.5 24.8 10.2 34 9.7 SE 15 22 8 12 1014.2 1014.2 0.0
21/08:00am 25.1 22.9 9.4 37 8.6 SSE 11 15 6 8 1014.1 1014.1 0.0
21/07:30am 23.0 21.7 11.4 48 6.5 S 9 11 5 6 1013.8 1013.8 0.0
21/07:00am 21.0 20.2 11.6 55 5.2 SSW 7 9 4 5 1013.5 1013.5 0.0
21/06:30am 18.3 18.0 13.2 72 2.9 SSW 7 9 4 5 1013.3 1013.3 0.0
21/06:00am 17.6 18.4 12.5 72 2.8 CALM 0 0 0 0 1012.8 1012.8 0.0
21/05:30am 17.7 18.4 12.2 70 3.0 CALM 0 0 0 0 1012.5 1012.5 0.0
21/05:00am 18.7 19.4 13.3 71 3.1 NE 2 6 1 3 1012.2 1012.2 0.0
21/04:30am 18.6 18.2 12.4 67 3.5 N 6 7 3 4 1011.8 1011.8 0.0
21/04:00am 19.9 19.0 12.7 63 4.1 S 9 11 5 6 1011.3 1011.3 0.0
21/03:30am 20.4 19.5 13.6 65 3.9 S 11 13 6 7 1011.3 1011.3 0.0
21/03:00am 21.0 20.5 13.9 64 4.1 SSE 9 9 5 5 1011.3 1011.3 0.0
21/02:30am 21.4 21.1 14.3 64 4.1 SSE 9 11 5 6 1011.3 1011.3 0.0
21/02:00am 21.7 21.0 14.4 63 4.3 S 11 13 6 7 1011.2 1011.2 0.0
21/01:30am 22.2 21.5 14.3 61 4.6 S 11 15 6 8 1011.3 1011.3 0.0
21/01:00am 22.9 22.2 14.2 58 5.1 S 11 15 6 8 1011.4 1011.4 0.0
21/12:30am 23.5 22.4 14.2 56 5.5 S 13 17 7 9 1011.7 1011.7 0.0
21/12:00am 23.8 22.9 13.6 52 5.9 SSE 11 13 6 7 1011.9 1011.9 0.0
 
Date/Time
WST
Temp
°C
App
Temp
°C
Dew
Point
°C
Rel
Hum
%
Delta-T
°C
Wind Press
QNH
hPa
Press
MSL
hPa
Rain since
9am
mm
Dir  Spd
km/h
Gust
km/h
Spd
kts
Gust
kts
20/11:30pm 24.5 24.2 14.3 53 6.0 SSW 9 11 5 6 1011.9 1011.9 0.0
20/11:00pm 24.9 25.0 14.4 52 6.2 SW 7 9 4 5 1012.1 1012.1 0.0
20/10:30pm 25.0 24.7 14.5 52 6.2 SW 9 11 5 6 1012.1 1012.1 0.0
20/10:00pm 25.3 25.3 14.1 50 6.6 SSW 7 9 4 5 1012.2 1012.2 0.0
20/09:30pm 25.8 25.6 13.6 47 7.2 SW 7 9 4 5 1012.1 1012.1 0.0
20/09:00pm 25.8 25.7 14.9 51 6.5 W 9 11 5 6 1012.1 1012.1 0.0
20/08:30pm 26.5 26.4 17.0 56 5.9 WNW 13 19 7 10 1012.2 1012.2 0.0
20/08:00pm 26.2 26.1 17.0 57 5.7 NNW 13 15 7 8 1011.9 1011.9 0.0
20/07:30pm 26.9 27.6 12.2 40 8.5 CALM 0 0 0 0 1011.7 1011.7 0.0
20/07:00pm 28.4 29.0 11.9 36 9.6 CALM 0 4 0 2 1011.5 1011.5 0.0
20/06:30pm 29.6 29.0 11.6 33 10.4 NNW 6 6 3 3 1011.2 1011.2 0.0
20/06:00pm 30.7 30.4 11.6 31 11.1 NW 4 9 2 5 1011.0 1011.0 0.0
20/05:30pm 32.9 32.2 11.4 27 12.6 NW 6 9 3 5 1010.7 1010.7 0.0
20/05:00pm 34.9 32.3 9.3 21 14.7 SE 13 17 7 9 1010.6 1010.6 0.0
20/04:30pm 35.7 33.9 9.3 20 15.2 SSE 9 13 5 7 1010.5 1010.5 0.0
20/04:00pm 36.2 34.1 9.7 20 15.3 S 11 19 6 10 1010.3 1010.3 0.0
20/03:30pm 36.4 34.5 9.1 19 15.7 S 9 15 5 8 1010.2 1010.2 0.0
20/03:00pm 36.6 33.2 9.2 19 15.8 SSE 17 28 9 15 1010.3 1010.3 0.0
20/02:30pm 36.1 33.0 8.8 19 15.6 SE 15 20 8 11 1010.6 1010.6 0.0
20/02:00pm 36.6 34.2 10.0 20 15.5 SE 13 22 7 12 1010.9 1010.9 0.0
20/01:30pm 36.3 33.4 9.8 20 15.4 SW 15 22 8 12 1011.2 1011.2 0.0
20/01:00pm 35.9 33.3 9.4 20 15.3 SSW 13 22 7 12 1011.9 1011.9 0.0
20/12:30pm 35.6 32.8 9.9 21 14.9 SSW 15 22 8 12 1012.4 1012.4 0.0
20/12:00pm 34.7 32.0 10.5 23 14.1 SSW 15 22 8 12 1013.0 1013.0 0.0
20/11:30am 34.8 32.3 11.2 24 13.9 SSW 15 22 8 12 1013.5 1013.5 0.0
20/11:00am 32.9 29.8 10.3 25 13.0 S 17 22 9 12 1014.3 1014.3 0.0
20/10:30am 31.8 28.5 11.0 28 12.0 S 19 26 10 14 1015.0 1015.0 0.0
20/10:00am 30.4 27.8 11.9 32 10.8 S 17 22 9 12 1015.4 1015.4 0.0
20/09:30am 29.6 27.0 12.1 34 10.2 S 17 20 9 11 1015.8 1015.8 0.0
20/09:00am 28.0 26.2 12.0 37 9.2 S 13 17 7 9 1015.9 1015.9 0.0
20/08:30am 26.0 24.9 13.2 45 7.5 SSW 11 17 6 9 1015.9 1015.9 0.0
20/08:00am 24.5 23.2 13.7 51 6.3 SSW 13 15 7 8 1015.8 1015.8 0.0
20/07:30am 23.0 23.0 14.3 58 5.1 SSW 7 9 4 5 1015.7 1015.7 0.0
20/07:00am 20.9 22.5 15.0 69 3.5 CALM 0 6 0 3 1015.5 1015.5 0.0
20/06:30am 18.3 18.3 13.6 74 2.7 SE 6 7 3 4 1015.3 1015.3 0.0
20/06:00am 18.3 19.4 13.6 74 2.7 CALM 0 0 0 0 1015.1 1015.1 0.0
20/05:30am 18.1 18.6 12.8 71 3.0 N 2 6 1 3 1014.6 1014.6 0.0
20/05:00am 19.1 19.8 13.5 70 3.2 NNW 2 7 1 4 1014.2 1014.2 0.0
20/04:30am 20.2 20.5 13.4 65 3.9 NE 4 7 2 4 1014.0 1014.0 0.0
20/04:00am 20.2 20.0 13.6 66 3.8 NNW 7 11 4 6 1013.7 1013.7 0.0
20/03:30am 19.4 17.9 11.9 62 4.2 NW 11 13 6 7 1013.5 1013.5 0.0
20/03:00am 19.5 19.4 13.4 68 3.5 N 6 9 3 5 1013.6 1013.6 0.0
20/02:30am 19.2 19.7 11.7 62 4.1 CALM 0 0 0 0 1013.4 1013.4 0.0
20/02:00am 19.8 19.7 12.1 61 4.3 ENE 4 7 2 4 1013.4 1013.4 0.0
20/01:30am 19.8 20.1 10.8 56 4.9 CALM 0 0 0 0 1013.6 1013.6 0.0
20/01:00am 22.1 21.1 12.4 54 5.5 NE 9 11 5 6 1013.6 1013.6 0.0
20/12:30am 22.0 21.5 12.0 53 5.6 ENE 6 7 3 4 1013.5 1013.5 0.0
20/12:00am 22.2 22.7 11.6 51 5.9 CALM 0 0 0 0 1013.5 1013.5 0.0
 
Date/Time
WST
Temp
°C
App
Temp
°C
Dew
Point
°C
Rel
Hum
%
Delta-T
°C
Wind Press
QNH
hPa
Press
MSL
hPa
Rain since
9am
mm
Dir  Spd
km/h
Gust
km/h
Spd
kts
Gust
kts
19/11:30pm 23.8 23.3 12.1 48 6.6 SSW 6 9 3 5 1013.3 1013.3 0.0
19/11:00pm 24.5 23.8 12.1 46 7.1 WSW 7 9 4 5 1013.4 1013.4 0.0
19/10:30pm 25.0 22.8 12.2 44 7.3 SSW 15 19 8 10 1013.1 1013.1 0.0
19/10:00pm 24.5 23.4 13.1 49 6.6 SSW 11 15 6 8 1013.2 1013.2 0.0
19/09:30pm 24.9 26.0 16.6 60 5.1 SSW 6 9 3 5 1013.3 1013.3 0.0
19/09:00pm 25.0 26.6 17.0 61 5.0 WSW 4 6 2 3 1013.2 1013.2 0.0
19/08:30pm 24.8 25.8 17.8 65 4.4 WNW 9 13 5 7 1013.1 1013.1 0.0
19/08:00pm 25.5 25.7 17.7 62 4.9 NW 13 15 7 8 1012.7 1012.7 0.0
19/07:30pm 25.8 25.3 15.8 54 6.1 NW 13 15 7 8 1012.5 1012.5 0.0
19/07:00pm 26.8 26.0 12.8 42 8.2 NW 9 11 5 6 1012.1 1012.1 0.0
19/06:30pm 28.7 27.8 11.3 34 10.0 NNW 7 9 4 5 1011.8 1011.8 0.0
19/06:00pm 29.3 27.6 12.3 35 9.9 NNW 13 15 7 8 1011.5 1011.5 0.0
19/05:30pm 31.0 28.6 12.8 32 10.8 NNW 17 20 9 11 1011.2 1011.2 0.0
19/05:00pm 33.3 30.6 11.8 27 12.7 NNW 17 19 9 10 1010.9 1010.9 0.0
19/04:30pm 35.0 32.2 10.1 22 14.4 NW 15 20 8 11 1010.5 1010.5 0.0
19/04:00pm 36.0 32.9 10.2 21 15.0 NW 17 20 9 11 1010.2 1010.2 0.0
19/03:30pm 36.8 33.3 8.6 18 16.1 W 17 20 9 11 1010.1 1010.1 0.0
19/03:00pm 37.6 34.0 8.4 17 16.7 NW 17 22 9 12 1010.2 1010.2 0.0
19/02:30pm 37.4 34.9 8.2 17 16.6 WNW 11 20 6 11 1010.4 1010.4 0.0
19/02:00pm 36.9 34.5 7.0 16 16.7 NNE 9 15 5 8 1010.6 1010.6 0.0
19/01:30pm 37.4 35.4 7.3 16 16.9 S 7 15 4 8 1011.2 1011.2 0.0
19/01:00pm 36.6 34.3 7.6 17 16.3 SW 9 17 5 9 1011.6 1011.6 0.0
19/12:30pm 36.3 34.4 7.4 17 16.2 SSE 7 19 4 10 1012.2 1012.2 0.0
19/12:00pm 35.1 32.4 7.2 18 15.5 S 11 20 6 11 1012.8 1012.8 0.0
19/11:30am 35.2 33.1 8.1 19 15.2 SSW 9 20 5 11 1013.4 1013.4 0.0

Other Formats:

Comma delimited format used in spreadsheet applications
http://www.bom.gov.au/fwo/IDW60801/IDW60801.95205.axf

JavaScript Object Notation format (JSON) in row-major order
http://www.bom.gov.au/fwo/IDW60801/IDW60801.95205.json